createdAt,value
2023-03-25T00:02:30.998Z,3.15
2023-03-25T00:06:47.803Z,3.20
2023-03-25T00:11:05.505Z,3.70
2023-03-25T00:15:22.664Z,3.62
2023-03-25T00:19:38.844Z,3.97
2023-03-25T00:23:55.717Z,3.90
2023-03-25T00:28:14.057Z,4.30
2023-03-25T00:32:30.306Z,3.90
2023-03-25T00:36:46.519Z,3.80
2023-03-25T00:41:26.054Z,3.40
2023-03-25T00:45:42.409Z,3.17
2023-03-25T00:49:58.651Z,2.60
2023-03-25T00:54:14.849Z,2.60
2023-03-25T00:58:31.204Z,2.80
2023-03-25T01:02:49.126Z,2.60
2023-03-25T01:07:05.399Z,2.42
2023-03-25T01:11:23.849Z,2.37
2023-03-25T01:15:41.229Z,2.70
2023-03-25T01:19:57.482Z,3.15
2023-03-25T01:24:15.559Z,3.67
2023-03-25T01:28:31.735Z,4.25
2023-03-25T01:32:48.324Z,4.05
2023-03-25T01:37:04.759Z,4.75
2023-03-25T01:41:21.003Z,5.20
2023-03-25T01:45:37.571Z,5.28
2023-03-25T01:49:54.487Z,5.65
2023-03-25T01:54:12.982Z,5.93
2023-03-25T01:58:29.899Z,5.80
2023-03-25T02:02:47.084Z,6.37
2023-03-25T02:07:03.461Z,6.12
2023-03-25T02:11:19.769Z,6.20
2023-03-25T02:16:07.342Z,5.47
2023-03-25T02:21:08.554Z,5.40
2023-03-25T02:25:39.850Z,5.18
2023-03-25T02:30:20.408Z,4.32
2023-03-25T02:34:49.059Z,5.37
2023-03-25T02:39:23.924Z,5.25
2023-03-25T02:43:51.852Z,4.90
2023-03-25T02:48:15.654Z,4.50
2023-03-25T02:52:39.942Z,4.47
2023-03-25T02:56:58.133Z,5.18
2023-03-25T03:01:15.175Z,4.50
2023-03-25T03:05:34.169Z,4.40
2023-03-25T03:10:11.157Z,4.78
2023-03-25T03:15:05.056Z,4.07
2023-03-25T03:23:55.897Z,3.85
2023-03-25T03:28:30.323Z,4.37
2023-03-25T03:33:03.305Z,3.70
2023-03-25T03:37:26.626Z,3.60
2023-03-25T03:41:43.741Z,3.83
2023-03-25T03:46:05.415Z,3.72
2023-03-25T03:50:33.189Z,3.47
2023-03-25T03:54:57.026Z,3.53
2023-03-25T03:59:36.407Z,3.47
2023-03-25T04:04:03.047Z,3.30
2023-03-25T04:08:52.570Z,3.50
2023-03-25T04:13:15.023Z,3.50
2023-03-25T04:17:33.228Z,3.83
2023-03-25T04:21:49.453Z,3.40
2023-03-25T04:26:06.476Z,3.67
2023-03-25T04:30:22.720Z,3.97
2023-03-25T04:34:39.476Z,3.90
2023-03-25T04:38:56.259Z,3.87
2023-03-25T04:43:16.502Z,3.90
2023-03-25T04:47:32.798Z,3.58
2023-03-25T04:51:51.725Z,3.78
2023-03-25T04:56:16.454Z,3.50
2023-03-25T05:00:32.779Z,3.53
2023-03-25T05:04:49.078Z,3.22
2023-03-25T05:09:07.858Z,3.30
2023-03-25T05:13:24.109Z,3.47
2023-03-25T05:17:41.542Z,3.33
2023-03-25T05:21:58.290Z,3.20
2023-03-25T05:26:14.776Z,3.22
2023-03-25T05:30:32.687Z,3.60
2023-03-25T05:34:50.201Z,3.45
2023-03-25T05:39:06.506Z,3.72
2023-03-25T05:43:23.086Z,3.45
2023-03-25T05:47:40.413Z,3.28
2023-03-25T05:51:57.258Z,2.85
2023-03-25T05:56:13.517Z,3.20
2023-03-25T06:00:30.766Z,3.15
2023-03-25T06:04:51.260Z,3.10
2023-03-25T06:09:07.986Z,4.57
2023-03-25T06:13:24.748Z,3.10
2023-03-25T06:17:41.674Z,3.10
2023-03-25T06:21:57.982Z,3.05
2023-03-25T06:26:14.649Z,2.87
2023-03-25T06:30:31.003Z,3.10
2023-03-25T06:34:47.232Z,3.03
2023-03-25T06:39:05.537Z,3.45
2023-03-25T06:43:21.841Z,2.85
2023-03-25T06:47:38.087Z,2.83
2023-03-25T06:51:54.439Z,3.35
2023-03-25T06:56:10.972Z,3.00
2023-03-25T07:00:28.733Z,2.40
2023-03-25T07:04:45.294Z,2.60
2023-03-25T07:09:01.530Z,2.50
2023-03-25T07:13:17.707Z,2.65
2023-03-25T07:17:36.355Z,2.90
2023-03-25T07:21:52.637Z,2.50
2023-03-25T07:26:08.899Z,2.67
2023-03-25T07:30:25.223Z,2.65
2023-03-25T07:34:41.369Z,2.80
2023-03-25T07:38:57.651Z,3.03
2023-03-25T07:43:14.000Z,2.60
2023-03-25T07:47:30.371Z,2.65
2023-03-25T07:51:46.996Z,2.60
2023-03-25T07:56:03.260Z,2.75
2023-03-25T08:00:19.834Z,3.03
2023-03-25T08:04:36.449Z,2.58
2023-03-25T08:08:52.614Z,2.60
2023-03-25T08:13:08.862Z,2.20
2023-03-25T08:17:25.249Z,2.53
2023-03-25T08:21:42.780Z,2.03
2023-03-25T08:25:58.909Z,2.47
2023-03-25T08:30:16.030Z,2.03
2023-03-25T08:34:34.761Z,1.67
2023-03-25T08:38:51.789Z,1.77
2023-03-25T08:43:08.063Z,2.00
2023-03-25T08:47:24.331Z,1.90
2023-03-25T08:51:40.526Z,1.65
2023-03-25T08:55:58.366Z,1.80
2023-03-25T09:00:15.173Z,2.28
2023-03-25T09:04:31.465Z,2.20
2023-03-25T09:08:50.370Z,2.05
2023-03-25T09:13:06.912Z,2.10
2023-03-25T09:17:23.318Z,2.47
2023-03-25T09:21:39.517Z,2.28
2023-03-25T09:25:56.874Z,2.50
2023-03-25T09:30:13.454Z,2.35
2023-03-25T09:34:29.790Z,2.70
2023-03-25T09:38:46.864Z,2.28
2023-03-25T09:43:21.937Z,2.42
2023-03-25T09:47:39.292Z,2.15
2023-03-25T09:51:56.266Z,2.25
2023-03-25T09:56:24.806Z,1.90
2023-03-25T10:00:41.149Z,2.00
2023-03-25T10:05:19.190Z,2.28
2023-03-25T10:09:44.490Z,1.92
2023-03-25T10:14:19.923Z,2.08
2023-03-25T10:18:51.241Z,2.50
2023-03-25T10:23:34.958Z,2.10
2023-03-25T10:32:24.172Z,2.00
2023-03-25T10:36:58.304Z,2.08
2023-03-25T10:41:39.409Z,2.33
2023-03-25T10:46:17.169Z,1.87
2023-03-25T10:50:34.112Z,1.77
2023-03-25T10:54:54.960Z,2.15
2023-03-25T10:59:41.828Z,1.87
2023-03-25T11:04:00.392Z,2.65
2023-03-25T11:08:25.133Z,2.42
2023-03-25T11:12:46.719Z,2.40
2023-03-25T11:17:05.917Z,2.12
2023-03-25T11:21:22.402Z,2.17
2023-03-25T11:25:42.191Z,3.22
2023-03-25T11:30:08.841Z,2.95
2023-03-25T11:34:25.443Z,1.75
2023-03-25T11:38:41.935Z,2.60
2023-03-25T11:43:00.604Z,1.85
2023-03-25T11:47:21.627Z,1.40
2023-03-25T11:51:38.596Z,1.33
2023-03-25T11:56:07.048Z,1.37
2023-03-25T12:00:29.622Z,2.50
2023-03-25T12:05:12.603Z,3.43
2023-03-25T12:09:33.890Z,2.10
2023-03-25T12:14:12.936Z,2.45
2023-03-25T12:18:48.487Z,1.58
2023-03-25T12:23:42.633Z,1.75
2023-03-25T12:28:23.698Z,1.70
2023-03-25T12:33:03.602Z,1.73
2023-03-25T12:37:38.114Z,1.35
2023-03-25T12:41:57.187Z,1.40
2023-03-25T12:46:32.472Z,1.42
2023-03-25T12:51:10.538Z,1.50
2023-03-25T12:55:40.767Z,1.20
2023-03-25T13:00:09.446Z,1.42
2023-03-25T13:04:53.046Z,1.17
2023-03-25T13:13:31.921Z,5.47
2023-03-25T13:18:04.263Z,8.68
2023-03-25T13:22:29.404Z,3.75
2023-03-25T13:26:47.543Z,1.80
2023-03-25T13:31:04.823Z,2.95
2023-03-25T13:35:37.750Z,1.40
2023-03-25T13:40:14.756Z,1.45
2023-03-25T13:44:39.787Z,1.42
2023-03-25T13:48:59.241Z,1.67
2023-03-25T13:53:21.269Z,1.70
2023-03-25T13:57:47.025Z,1.37
2023-03-25T14:02:24.355Z,4.35
2023-03-25T14:07:10.229Z,1.90
2023-03-25T14:11:40.789Z,0.90
2023-03-25T14:16:12.857Z,1.35
2023-03-25T14:20:40.308Z,1.60
2023-03-25T14:24:58.630Z,1.25
2023-03-25T14:29:41.340Z,1.33
2023-03-25T14:34:04.155Z,1.60
2023-03-25T14:38:22.201Z,1.10
2023-03-25T14:42:58.552Z,1.50
2023-03-25T14:47:22.822Z,2.00
2023-03-25T14:51:42.931Z,1.40
2023-03-25T14:56:02.755Z,1.15
2023-03-25T15:00:34.317Z,1.70
2023-03-25T15:05:02.642Z,1.40
2023-03-25T15:09:19.864Z,1.20
2023-03-25T15:13:40.785Z,1.50
2023-03-25T15:17:59.698Z,1.90
2023-03-25T15:22:22.441Z,1.70
2023-03-25T15:26:41.824Z,1.40
2023-03-25T15:31:03.542Z,1.52
2023-03-25T15:35:32.289Z,1.80
2023-03-25T15:39:59.686Z,1.40
2023-03-25T15:44:49.816Z,1.30
2023-03-25T15:49:43.756Z,1.05
2023-03-25T15:54:08.101Z,1.60
2023-03-25T15:58:42.015Z,1.40
2023-03-25T16:03:06.338Z,1.50
2023-03-25T16:07:26.850Z,1.60
2023-03-25T16:11:44.187Z,1.00
2023-03-25T16:16:01.731Z,1.08
2023-03-25T16:20:22.257Z,1.10
2023-03-25T16:24:39.930Z,1.15
2023-03-25T16:29:06.740Z,0.98
2023-03-25T16:33:31.688Z,0.90
2023-03-25T16:37:47.987Z,1.30
2023-03-25T16:42:21.666Z,1.20
2023-03-25T16:46:38.117Z,1.52
2023-03-25T16:50:56.096Z,2.40
2023-03-25T16:55:27.138Z,1.60
2023-03-25T16:59:45.956Z,1.25
2023-03-25T17:04:19.598Z,1.20
2023-03-25T17:08:36.438Z,2.25
2023-03-25T17:12:59.753Z,1.25
2023-03-25T17:17:15.904Z,1.15
2023-03-25T17:21:34.192Z,1.60
2023-03-25T17:25:59.373Z,2.20
2023-03-25T17:30:22.011Z,1.70
2023-03-25T17:34:45.610Z,3.40
2023-03-25T17:39:06.509Z,2.12
2023-03-25T17:43:22.774Z,2.30
2023-03-25T17:47:41.034Z,2.60
2023-03-25T17:51:58.631Z,3.05
2023-03-25T17:56:18.494Z,4.15
2023-03-25T18:00:35.986Z,4.55
2023-03-25T18:04:52.403Z,3.33
2023-03-25T18:09:17.240Z,2.80
2023-03-25T18:13:33.582Z,2.22
2023-03-25T18:17:52.047Z,2.30
2023-03-25T18:22:19.765Z,2.03
2023-03-25T18:26:36.845Z,2.72
2023-03-25T18:31:01.747Z,2.50
2023-03-25T18:35:18.552Z,1.80
2023-03-25T18:39:35.900Z,2.12
2023-03-25T18:43:54.221Z,3.10
2023-03-25T18:48:17.559Z,3.03
2023-03-25T18:52:33.803Z,2.92
2023-03-25T18:56:50.218Z,2.70
2023-03-25T19:01:07.851Z,2.37
2023-03-25T19:05:24.782Z,2.95
2023-03-25T19:09:41.844Z,3.67
2023-03-25T19:13:58.077Z,4.35
2023-03-25T19:18:20.073Z,4.57
2023-03-25T19:22:36.648Z,3.83
2023-03-25T19:26:53.325Z,2.97
2023-03-25T19:31:11.950Z,3.35
2023-03-25T19:35:30.706Z,3.28
2023-03-25T19:39:46.965Z,2.67
2023-03-25T19:44:03.212Z,3.40
2023-03-25T19:48:19.840Z,3.10
2023-03-25T19:52:36.138Z,2.25
2023-03-25T19:56:52.901Z,2.53
2023-03-25T20:01:09.271Z,2.60
2023-03-25T20:05:27.195Z,1.77
2023-03-25T20:09:44.247Z,1.90
2023-03-25T20:14:02.562Z,1.50
2023-03-25T20:18:19.196Z,1.12
2023-03-25T20:22:39.388Z,1.58
2023-03-25T20:26:57.637Z,1.30
2023-03-25T20:31:17.715Z,1.33
2023-03-25T20:35:35.034Z,1.10
2023-03-25T20:39:51.473Z,1.15
2023-03-25T20:44:08.222Z,1.08
2023-03-25T20:48:27.822Z,1.30
2023-03-25T20:52:44.118Z,1.12
2023-03-25T20:57:02.411Z,1.10
2023-03-25T21:01:18.805Z,1.30
2023-03-25T21:05:35.136Z,1.15
2023-03-25T21:09:51.344Z,1.30
2023-03-25T21:14:07.650Z,1.60
2023-03-25T21:18:25.226Z,1.40
2023-03-25T21:22:43.889Z,1.60
2023-03-25T21:27:00.768Z,1.30
2023-03-25T21:31:24.265Z,1.10
2023-03-25T21:40:13.200Z,1.37
2023-03-25T21:44:30.704Z,1.35
2023-03-25T21:48:48.725Z,1.30
2023-03-25T21:53:07.749Z,1.30
2023-03-25T21:57:26.548Z,1.52
2023-03-25T22:01:42.867Z,1.20
2023-03-25T22:06:02.715Z,1.20
2023-03-25T22:10:19.289Z,1.35
2023-03-25T22:14:35.811Z,1.33
2023-03-25T22:18:53.790Z,1.33
2023-03-25T22:23:12.573Z,1.40
2023-03-25T22:27:30.838Z,1.23
2023-03-25T22:31:47.012Z,1.40
2023-03-25T22:36:08.821Z,1.40
2023-03-25T22:40:27.898Z,1.40
2023-03-25T22:44:46.937Z,1.45
2023-03-25T22:49:08.478Z,1.50
2023-03-25T22:53:26.580Z,1.45
2023-03-25T22:57:44.864Z,1.48
2023-03-25T23:02:02.215Z,1.48
2023-03-25T23:06:18.535Z,1.40
2023-03-25T23:10:34.826Z,1.42
2023-03-25T23:14:54.639Z,1.48
2023-03-25T23:19:11.110Z,1.30
2023-03-25T23:23:29.052Z,1.60
2023-03-25T23:27:45.389Z,1.40
2023-03-25T23:32:02.049Z,1.48
2023-03-25T23:36:19.749Z,1.30
2023-03-25T23:40:36.013Z,1.40
2023-03-25T23:44:53.022Z,1.30
2023-03-25T23:49:10.940Z,1.52
2023-03-25T23:53:27.791Z,1.50
2023-03-25T23:57:44.143Z,1.55
